Time;durP1;ratioP1;P1;durP2;ratioP2;P2;SDS_P1;SDS_P2;PMS_P1;PMS_P2;Temp;Humidity;BMP_temperature;BMP_pressure;BME280_temperature;BME280_humidity;BME280_pressure;Samples;Min_cycle;Max_cycle;Signal;HPM_P1;HPM_P2
2022/04/03 00:02:17;;;;;;;;;6.67;4.33;;;;;22.53;50.57;101907.44;5051998;28;54618;-61
2022/04/03 00:04:42;;;;;;;;;9.00;5.00;;;;;22.52;50.24;101911.94;5052081;28;45155;-61
2022/04/03 00:07:08;;;;;;;;;8.33;4.00;;;;;22.51;50.47;101910.16;5039609;28;56101;-61
2022/04/03 00:09:33;;;;;;;;;8.33;6.67;;;;;22.52;50.36;101916.44;5056377;28;45577;-62
2022/04/03 00:11:59;;;;;;;;;11.33;5.67;;;;;22.52;50.23;101911.94;5055409;28;45991;-62
2022/04/03 00:14:24;;;;;;;;;11.67;6.33;;;;;22.49;50.34;101918.28;5057723;28;48845;-61
2022/04/03 00:16:49;;;;;;;;;11.00;5.67;;;;;22.51;50.36;101912.84;5057303;28;54912;-60
2022/04/03 00:19:15;;;;;;;;;14.67;5.67;;;;;22.51;50.48;101914.66;5057008;28;56680;-60
2022/04/03 00:21:40;;;;;;;;;12.33;5.00;;;;;22.49;50.39;101915.59;5053366;28;46911;-62
2022/04/03 00:24:06;;;;;;;;;9.00;6.00;;;;;22.49;50.13;101912.91;5057396;28;45546;-62
2022/04/03 00:26:31;;;;;;;;;7.67;5.00;;;;;22.49;50.44;101912.00;5056648;28;45680;-61
2022/04/03 00:28:57;;;;;;;;;13.67;7.00;;;;;22.46;50.05;101904.00;5057509;28;49901;-62
2022/04/03 00:31:23;;;;;;;;;16.67;8.00;;;;;22.48;50.43;101910.25;5047043;28;47245;-61
2022/04/03 00:33:48;;;;;;;;;9.67;5.00;;;;;22.48;50.62;101907.56;5050415;28;45489;-60
2022/04/03 00:36:13;;;;;;;;;8.00;6.33;;;;;22.47;50.64;101911.13;5057801;28;45329;-61
2022/04/03 00:38:39;;;;;;;;;13.33;5.33;;;;;22.46;50.57;101910.25;5056351;28;53207;-61
2022/04/03 00:41:04;;;;;;;;;10.67;4.33;;;;;22.44;50.38;101903.16;5053232;28;63596;-62
2022/04/03 00:43:30;;;;;;;;;10.67;4.33;;;;;22.44;49.81;101903.16;5057230;28;45389;-61
2022/04/03 00:45:55;;;;;;;;;15.00;5.67;;;;;22.44;50.43;101905.84;5056278;28;45441;-61
2022/04/03 00:48:21;;;;;;;;;11.67;6.00;;;;;22.44;50.07;101909.41;5012747;28;56002;-60
2022/04/03 00:50:46;;;;;;;;;12.33;5.33;;;;;22.44;50.24;101912.09;5050440;28;47362;-61
2022/04/03 00:53:12;;;;;;;;;10.33;5.00;;;;;22.45;50.01;101919.25;5050111;28;59101;-61
2022/04/03 00:55:41;;;;;;;;;8.33;3.00;;;;;22.43;49.92;101907.66;5056678;28;45506;-62
2022/04/03 00:58:06;;;;;;;;;18.67;6.33;;;;;22.43;49.82;101906.75;5049453;28;45460;-62
2022/04/03 01:00:32;;;;;;;;;9.00;6.00;;;;;22.42;50.15;101908.53;5057059;28;45653;-61
2022/04/03 01:02:57;;;;;;;;;8.67;4.00;;;;;22.42;50.45;101910.34;5055911;28;45485;-60
2022/04/03 01:05:23;;;;;;;;;7.33;4.67;;;;;22.41;49.81;101904.09;5054367;28;45824;-61
2022/04/03 01:07:48;;;;;;;;;7.67;4.67;;;;;22.41;49.88;101900.50;5057007;28;45668;-61
2022/04/03 01:10:14;;;;;;;;;7.00;4.33;;;;;22.40;50.11;101907.69;5056615;28;63236;-62
2022/04/03 01:12:40;;;;;;;;;8.67;4.33;;;;;22.40;49.89;101904.13;5054770;28;45400;-62
2022/04/03 01:15:06;;;;;;;;;10.33;5.00;;;;;22.40;50.40;101909.50;5057094;28;45414;-61
2022/04/03 01:17:31;;;;;;;;;8.00;6.33;;;;;22.38;50.06;101909.53;5057211;28;45310;-61
2022/04/03 01:19:57;;;;;;;;;9.00;4.33;;;;;22.38;50.67;101916.75;5052958;28;61710;-63
2022/04/03 01:22:22;;;;;;;;;6.67;3.00;;;;;22.38;50.03;101911.34;5056484;28;60209;-60
2022/04/03 01:24:54;;;;;;;;;13.00;5.00;;;;;22.37;50.34;101909.56;5050967;28;53929;-60
2022/04/03 01:27:19;;;;;;;;;12.00;4.33;;;;;22.37;50.25;101909.56;5057049;28;45460;-60
2022/04/03 01:29:45;;;;;;;;;14.33;6.00;;;;;22.35;50.01;101906.91;5051786;28;60441;-60
2022/04/03 01:32:10;;;;;;;;;7.67;2.00;;;;;22.36;50.08;101914.06;5055329;28;60314;-61
2022/04/03 01:34:35;;;;;;;;;9.33;5.00;;;;;22.33;50.37;101914.13;5052148;28;45628;-60
2022/04/03 01:37:01;;;;;;;;;17.33;7.00;;;;;22.34;50.35;101915.91;5055905;28;55123;-62
2022/04/03 01:39:27;;;;;;;;;9.00;4.00;;;;;22.32;50.63;101912.38;5051522;28;46652;-62
2022/04/03 01:41:52;;;;;;;;;9.33;5.67;;;;;22.29;49.92;101909.72;5055924;28;57071;-62
2022/04/03 01:44:20;;;;;;;;;12.00;3.67;;;;;22.31;50.21;101905.19;5048226;28;47115;-61
2022/04/03 01:46:46;;;;;;;;;9.00;3.00;;;;;22.32;50.56;101917.75;5036083;28;45231;-61
2022/04/03 01:49:11;;;;;;;;;10.67;4.00;;;;;22.32;50.27;101909.69;5045778;28;63231;-60
2022/04/03 01:51:37;;;;;;;;;12.67;4.67;;;;;22.31;50.42;101907.00;5053822;28;45383;-61
2022/04/03 01:54:02;;;;;;;;;7.67;5.00;;;;;22.30;49.93;101905.22;5056830;28;45280;-60
2022/04/03 01:56:28;;;;;;;;;7.33;4.33;;;;;22.31;50.15;101896.22;5051972;28;45372;-60
2022/04/03 01:58:53;;;;;;;;;8.33;4.00;;;;;22.31;50.10;101896.22;5055777;28;46492;-60
2022/04/03 02:01:19;;;;;;;;;3.33;3.00;;;;;22.32;50.50;101901.59;5049153;28;45296;-62
2022/04/03 02:03:46;;;;;;;;;13.67;6.67;;;;;22.30;49.84;101903.41;5054226;28;45911;-61
2022/04/03 02:06:13;;;;;;;;;18.00;5.00;;;;;22.30;50.42;101898.03;5056550;28;45500;-59
2022/04/03 02:08:38;;;;;;;;;10.00;4.33;;;;;22.30;49.80;101908.81;5052249;28;47569;-61
2022/04/03 02:11:04;;;;;;;;;9.00;5.00;;;;;22.30;50.02;101906.13;5055940;28;45403;-61
2022/04/03 02:13:29;;;;;;;;;11.67;5.00;;;;;22.30;50.23;101902.53;5054682;28;57384;-61
2022/04/03 02:15:54;;;;;;;;;7.33;6.00;;;;;22.31;50.17;101909.69;5051452;28;55965;-63
2022/04/03 02:18:20;;;;;;;;;9.00;4.00;;;;;22.30;50.58;101898.03;5055832;28;51212;-61
2022/04/03 02:20:45;;;;;;;;;10.67;3.67;;;;;22.27;49.86;101900.81;5050158;28;59156;-60
2022/04/03 02:23:11;;;;;;;;;8.33;3.67;;;;;22.29;50.24;101906.16;5055917;28;46007;-61
2022/04/03 02:25:36;;;;;;;;;16.67;6.00;;;;;22.29;50.13;101907.03;5049035;28;45332;-63
2022/04/03 02:28:02;;;;;;;;;9.67;3.33;;;;;22.29;50.47;101914.22;5053327;28;45875;-61
2022/04/03 02:30:27;;;;;;;;;10.67;4.33;;;;;22.30;50.51;101916.00;5049073;28;45298;-62
2022/04/03 02:32:53;;;;;;;;;11.33;3.67;;;;;22.26;49.96;101907.09;5051574;28;45312;-60
2022/04/03 02:35:18;;;;;;;;;9.33;3.33;;;;;22.28;50.53;101910.66;5052920;28;45258;-61
2022/04/03 02:37:44;;;;;;;;;11.33;4.00;;;;;22.26;49.98;101909.78;5055803;28;47282;-61
2022/04/03 02:40:11;;;;;;;;;10.67;4.00;;;;;22.28;49.96;101916.03;5055202;28;45462;-61
2022/04/03 02:42:36;;;;;;;;;8.33;4.33;;;;;22.27;49.76;101908.88;5051993;28;45439;-62
2022/04/03 02:45:03;;;;;;;;;8.67;4.00;;;;;22.28;50.16;101907.97;5055267;28;46215;-60
2022/04/03 02:47:29;;;;;;;;;10.67;3.00;;;;;22.27;50.21;101906.19;5053071;28;47011;-62
2022/04/03 02:49:54;;;;;;;;;13.67;5.33;;;;;22.28;50.19;101907.06;5040318;28;59812;-62
2022/04/03 02:52:20;;;;;;;;;12.00;3.00;;;;;22.27;50.27;101906.19;5034693;28;45412;-63
2022/04/03 02:54:45;;;;;;;;;12.33;5.67;;;;;22.28;49.78;101907.06;5054399;28;45291;-62
2022/04/03 02:57:12;;;;;;;;;9.00;4.33;;;;;22.27;49.53;101903.50;5055187;28;47307;-61
2022/04/03 02:59:37;;;;;;;;;17.33;3.67;;;;;22.30;49.63;101905.22;5055387;28;45328;-60
2022/04/03 03:02:03;;;;;;;;;17.67;7.00;;;;;22.29;50.17;101909.72;5055315;28;50957;-63
2022/04/03 03:04:28;;;;;;;;;9.67;4.67;;;;;22.33;49.93;101908.75;5055404;28;45307;-62
2022/04/03 03:06:54;;;;;;;;;18.67;5.33;;;;;22.34;49.72;101918.59;5052010;28;61638;-59
2022/04/03 03:09:19;;;;;;;;;7.67;4.00;;;;;22.34;49.71;101913.22;5052428;28;45292;-62
2022/04/03 03:11:45;;;;;;;;;16.33;4.67;;;;;22.37;49.37;101921.25;5055500;28;45485;-61
2022/04/03 03:14:10;;;;;;;;;13.33;5.33;;;;;22.39;49.87;101921.19;5058697;28;45291;-60
2022/04/03 03:16:35;;;;;;;;;15.67;5.33;;;;;22.39;49.71;101923.88;5052511;28;46948;-60
2022/04/03 03:19:01;;;;;;;;;7.67;4.00;;;;;22.40;49.69;101925.66;5058350;28;60758;-63
2022/04/03 03:21:26;;;;;;;;;10.33;4.33;;;;;22.39;49.40;101924.78;5055997;28;55750;-60
2022/04/03 03:23:52;;;;;;;;;5.67;4.00;;;;;22.39;49.19;101932.84;5058922;28;45241;-61
2022/04/03 03:26:17;;;;;;;;;12.67;4.00;;;;;22.40;49.14;101928.34;5058647;28;47486;-61
2022/04/03 03:28:42;;;;;;;;;10.33;4.00;;;;;22.40;49.62;101931.91;5050461;28;45465;-61
2022/04/03 03:31:08;;;;;;;;;12.33;6.00;;;;;22.39;49.48;101927.47;5055155;28;53154;-60
2022/04/03 03:33:34;;;;;;;;;15.67;6.00;;;;;22.37;49.29;101932.00;5058521;28;53330;-61
2022/04/03 03:35:59;;;;;;;;;11.00;4.00;;;;;22.37;49.64;101934.69;5039904;28;46155;-62
2022/04/03 03:38:25;;;;;;;;;13.00;4.00;;;;;22.39;49.49;101937.34;5058323;28;45285;-60
2022/04/03 03:40:51;;;;;;;;;9.67;4.00;;;;;22.39;49.80;101937.34;5057997;28;45411;-60
2022/04/03 03:43:16;;;;;;;;;8.33;3.00;;;;;22.38;49.56;101930.19;5055285;28;45463;-62
2022/04/03 03:45:42;;;;;;;;;16.00;4.67;;;;;22.37;49.43;101932.00;5057868;28;61389;-60
2022/04/03 03:48:10;;;;;;;;;8.00;4.00;;;;;22.37;49.42;101934.69;5052909;28;45422;-62
2022/04/03 03:50:36;;;;;;;;;10.67;4.67;;;;;22.36;49.71;101932.91;5050075;28;45402;-61
2022/04/03 03:53:01;;;;;;;;;10.00;4.00;;;;;22.37;49.70;101931.09;5056438;28;45410;-61
2022/04/03 03:55:26;;;;;;;;;9.33;4.67;;;;;22.37;49.48;101940.06;5055727;28;61929;-60
2022/04/03 03:57:52;;;;;;;;;9.00;3.00;;;;;22.36;49.70;101943.66;5057560;28;45538;-61
2022/04/03 04:00:18;;;;;;;;;11.67;5.00;;;;;22.36;49.47;101943.66;5054517;28;45478;-60
2022/04/03 04:02:43;;;;;;;;;12.67;5.00;;;;;22.35;49.15;101936.50;5052782;28;45642;-61
2022/04/03 04:05:09;;;;;;;;;11.67;4.00;;;;;22.36;49.04;101932.91;5057210;28;46510;-62
2022/04/03 04:07:44;;;;;;;;;6.00;3.00;;;;;22.33;49.67;101934.78;5051215;28;45559;-62
2022/04/03 04:10:12;;;;;;;;;9.00;3.00;;;;;22.33;49.72;101934.78;5058064;28;45274;-61
2022/04/03 04:12:39;;;;;;;;;5.00;3.33;;;;;22.34;49.65;101945.50;5053742;28;45423;-60
2022/04/03 04:15:05;;;;;;;;;9.67;3.33;;;;;22.34;49.27;101940.13;5058332;28;45923;-61
2022/04/03 04:17:38;;;;;;;;;7.33;4.00;;;;;22.34;49.07;101948.19;5039658;28;45533;-60
2022/04/03 04:20:07;;;;;;;;;12.00;5.00;;;;;22.34;49.34;101950.00;5054700;28;45370;-61
2022/04/03 04:22:33;;;;;;;;;9.00;4.00;;;;;22.33;49.41;101951.81;5057108;28;45344;-62
2022/04/03 04:24:58;;;;;;;;;6.33;3.00;;;;;22.33;49.50;101957.19;5036580;28;46933;-61
2022/04/03 04:27:24;;;;;;;;;8.00;4.00;;;;;22.32;49.42;101958.13;5055252;28;59756;-61
2022/04/03 04:29:49;;;;;;;;;8.00;3.00;;;;;22.31;49.21;101953.63;5054215;28;45387;-61
2022/04/03 04:32:15;;;;;;;;;15.33;5.00;;;;;22.33;49.51;101964.38;5056685;28;55148;-61
2022/04/03 04:34:40;;;;;;;;;8.33;3.33;;;;;22.32;49.25;101968.88;5049783;28;63106;-61
2022/04/03 04:37:05;;;;;;;;;9.33;4.00;;;;;22.31;49.26;101960.81;5051876;28;59106;-62
2022/04/03 04:39:31;;;;;;;;;7.67;3.00;;;;;22.30;49.41;101962.63;5053859;28;45303;-60
2022/04/03 04:41:57;;;;;;;;;6.67;4.00;;;;;22.27;49.47;101957.31;5056870;28;45728;-62
2022/04/03 04:44:22;;;;;;;;;9.00;3.00;;;;;22.29;49.54;101968.03;5057299;28;46512;-60
2022/04/03 04:46:48;;;;;;;;;8.67;4.00;;;;;22.31;49.32;101966.19;5056473;28;58135;-61
2022/04/03 04:49:14;;;;;;;;;10.33;4.00;;;;;22.31;49.18;101968.88;5050142;28;48773;-61
2022/04/03 04:51:40;;;;;;;;;11.33;5.00;;;;;22.30;49.29;101970.69;5052462;28;45696;-60
2022/04/03 04:54:05;;;;;;;;;7.67;4.00;;;;;22.31;49.47;101979.66;5056296;28;64006;-61
2022/04/03 04:56:31;;;;;;;;;5.33;3.33;;;;;22.29;49.69;101974.31;5053620;28;45385;-61
2022/04/03 04:58:57;;;;;;;;;13.00;4.00;;;;;22.29;49.29;101978.81;5057108;28;45580;-62
2022/04/03 05:01:22;;;;;;;;;9.33;3.33;;;;;22.29;49.38;101982.38;5056949;28;45466;-62
2022/04/03 05:03:48;;;;;;;;;6.33;3.00;;;;;22.30;49.34;101983.25;5056718;28;49042;-61
2022/04/03 05:06:15;;;;;;;;;11.00;3.67;;;;;22.28;49.58;101983.31;5056742;28;45213;-61
2022/04/03 05:08:41;;;;;;;;;6.00;3.67;;;;;22.29;49.61;101992.25;5056836;28;45704;-60
2022/04/03 05:11:07;;;;;;;;;8.33;3.00;;;;;22.29;49.00;101994.94;5039115;28;45353;-60
2022/04/03 05:13:32;;;;;;;;;8.00;4.33;;;;;22.28;49.01;101990.50;5056559;28;64044;-61
2022/04/03 05:15:57;;;;;;;;;9.33;3.33;;;;;22.28;49.46;101996.75;5056965;28;45324;-61
2022/04/03 05:18:23;;;;;;;;;12.00;4.67;;;;;22.28;49.10;101993.19;5035832;28;55126;-61
2022/04/03 05:20:49;;;;;;;;;8.67;5.33;;;;;22.25;49.08;101986.03;5057217;28;45620;-61
2022/04/03 05:23:15;;;;;;;;;8.33;4.00;;;;;22.25;49.34;101986.03;5053177;28;45927;-61
2022/04/03 05:25:40;;;;;;;;;11.33;3.33;;;;;22.27;49.20;101994.09;5038778;28;45530;-62
2022/04/03 05:28:07;;;;;;;;;7.33;3.00;;;;;22.27;49.42;101997.69;5055924;28;50839;-61
2022/04/03 05:30:32;;;;;;;;;10.33;4.67;;;;;22.27;49.53;101997.69;5056525;28;45449;-60
2022/04/03 05:32:58;;;;;;;;;12.33;4.00;;;;;22.26;49.28;102006.63;5054438;28;46792;-61
2022/04/03 05:35:23;;;;;;;;;8.67;5.67;;;;;22.26;49.32;102006.63;5055285;28;54929;-61
2022/04/03 05:37:49;;;;;;;;;5.00;3.00;;;;;22.26;49.30;102000.38;5054363;28;45343;-61
2022/04/03 05:40:15;;;;;;;;;8.33;4.00;;;;;22.25;49.54;102002.19;5055338;28;51500;-60
2022/04/03 05:42:40;;;;;;;;;10.33;4.00;;;;;22.22;49.37;102000.44;5053359;28;46749;-61
2022/04/03 05:45:06;;;;;;;;;8.00;2.33;;;;;22.24;49.42;102011.19;5049826;28;46759;-62
2022/04/03 05:47:33;;;;;;;;;6.67;2.00;;;;;22.21;49.03;102004.06;5056673;28;46083;-61
2022/04/03 05:49:58;;;;;;;;;5.33;4.00;;;;;22.21;49.34;102011.22;5048703;28;45520;-61
2022/04/03 05:52:24;;;;;;;;;10.00;3.67;;;;;22.23;49.69;102014.78;5053293;28;46472;-60
2022/04/03 05:54:50;;;;;;;;;10.00;3.00;;;;;22.23;49.15;102015.69;5056513;28;45323;-60
2022/04/03 05:57:15;;;;;;;;;10.67;4.00;;;;;22.18;49.56;102001.41;5056666;28;45372;-61
2022/04/03 05:59:41;;;;;;;;;5.33;3.67;;;;;22.21;49.00;102009.44;5048729;28;45588;-60
2022/04/03 06:02:06;;;;;;;;;13.00;4.00;;;;;22.21;49.51;102009.44;5055672;28;61155;-60
2022/04/03 06:04:33;;;;;;;;;8.67;3.00;;;;;22.22;49.21;102023.78;5056128;28;45355;-60
2022/04/03 06:06:58;;;;;;;;;13.33;4.33;;;;;22.19;49.53;102023.81;5048411;28;45272;-62
2022/04/03 06:09:23;;;;;;;;;11.33;4.00;;;;;22.22;49.31;102037.22;5056668;28;45397;-60
2022/04/03 06:11:49;;;;;;;;;8.67;4.00;;;;;22.23;48.97;102044.38;5055343;28;64402;-62
2022/04/03 06:14:14;;;;;;;;;10.33;5.00;;;;;22.22;48.95;102035.44;5051413;28;45356;-61
2022/04/03 06:16:40;;;;;;;;;7.00;3.00;;;;;22.22;49.44;102029.16;5054428;28;45769;-62
2022/04/03 06:19:05;;;;;;;;;11.00;3.00;;;;;22.22;49.18;102037.22;5055988;28;45183;-63
2022/04/03 06:21:31;;;;;;;;;9.00;3.00;;;;;22.23;48.81;102042.59;5055686;28;47511;-61
2022/04/03 06:23:56;;;;;;;;;8.33;3.33;;;;;22.16;48.97;102032.84;5054880;28;56859;-61
2022/04/03 06:26:22;;;;;;;;;6.33;4.00;;;;;22.22;49.44;102043.50;5052648;28;45430;-60
2022/04/03 06:28:47;;;;;;;;;9.33;4.00;;;;;22.22;49.32;102046.19;5052353;28;55913;-60
2022/04/03 06:31:13;;;;;;;;;9.33;3.33;;;;;22.23;48.75;102050.66;5055604;28;46819;-61
2022/04/03 06:33:39;;;;;;;;;7.00;5.00;;;;;22.22;48.65;102048.88;5056030;28;45442;-62
2022/04/03 06:36:06;;;;;;;;;9.67;4.00;;;;;22.23;49.35;102063.22;5055529;28;45285;-61
2022/04/03 06:38:31;;;;;;;;;11.33;4.67;;;;;22.23;48.89;102055.16;5055892;28;45333;-61
2022/04/03 06:40:57;;;;;;;;;9.00;4.00;;;;;22.21;49.35;102055.19;5055368;28;49425;-60
2022/04/03 06:43:27;;;;;;;;;8.00;5.00;;;;;22.22;48.69;102056.94;5055756;28;45197;-61
2022/04/03 06:45:53;;;;;;;;;12.00;4.00;;;;;22.22;48.68;102059.66;5055787;28;45481;-61
2022/04/03 06:48:19;;;;;;;;;7.00;4.00;;;;;22.22;48.50;102059.66;5030680;28;45532;-61
2022/04/03 06:50:44;;;;;;;;;7.00;3.00;;;;;22.23;48.59;102066.78;5027820;28;47151;-61
2022/04/03 06:53:09;;;;;;;;;8.67;4.67;;;;;22.21;48.49;102065.03;5055401;28;62998;-63
2022/04/03 06:55:35;;;;;;;;;8.67;4.00;;;;;22.23;49.08;102061.41;5054781;28;45461;-62
2022/04/03 06:58:01;;;;;;;;;7.33;4.00;;;;;22.23;48.74;102066.78;5038266;28;45368;-62
2022/04/03 07:00:26;;;;;;;;;11.67;4.00;;;;;22.22;48.65;102067.72;5040729;28;46385;-60
2022/04/03 07:02:51;;;;;;;;;8.00;4.00;;;;;22.24;48.99;102073.06;5036615;28;45495;-62
2022/04/03 07:05:17;;;;;;;;;11.33;4.00;;;;;22.24;48.59;102075.75;5059198;28;45261;-62
2022/04/03 07:07:43;;;;;;;;;8.00;4.00;;;;;22.23;48.78;102074.88;5054192;28;45426;-61
2022/04/03 07:10:09;;;;;;;;;12.00;7.00;;;;;22.22;48.44;102080.28;5055744;28;60172;-62
2022/04/03 07:12:34;;;;;;;;;8.67;4.00;;;;;22.25;49.07;102082.91;5055637;28;45698;-63
2022/04/03 07:14:59;;;;;;;;;13.33;4.00;;;;;22.25;48.60;102082.91;5053230;28;57161;-63
2022/04/03 07:17:25;;;;;;;;;10.67;4.00;;;;;22.26;48.77;102084.69;5054503;28;57440;-62
2022/04/03 07:19:50;;;;;;;;;10.67;3.67;;;;;22.26;48.43;102090.06;5053443;28;61316;-61
2022/04/03 07:22:16;;;;;;;;;5.00;4.67;;;;;22.26;48.63;102084.69;5058304;28;49714;-63
2022/04/03 07:24:41;;;;;;;;;6.00;3.00;;;;;22.27;48.80;102096.34;5058274;28;46065;-63
2022/04/03 07:27:07;;;;;;;;;7.67;4.00;;;;;22.25;48.94;102090.97;5058146;28;45506;-63
2022/04/03 07:29:33;;;;;;;;;9.00;5.00;;;;;22.25;48.92;102090.97;5047058;28;46609;-63
2022/04/03 07:31:59;;;;;;;;;12.33;6.00;;;;;22.22;48.80;102088.34;5046518;28;45442;-63
2022/04/03 07:34:24;;;;;;;;;11.33;4.00;;;;;22.23;48.44;102088.31;5054599;28;54524;-62
2022/04/03 07:36:50;;;;;;;;;6.67;3.33;;;;;22.25;48.73;102092.78;5052220;28;45717;-62
2022/04/03 07:39:15;;;;;;;;;9.00;4.00;;;;;22.24;48.40;102094.59;5022345;28;47081;-62
2022/04/03 07:41:41;;;;;;;;;12.67;5.00;;;;;22.23;48.51;102099.09;5032527;28;45520;-62
2022/04/03 07:44:07;;;;;;;;;12.00;3.00;;;;;22.23;48.93;102098.19;5067142;22;45242;-61
2022/04/03 07:46:32;;;;;;;;;5.33;4.00;;;;;22.23;48.49;102099.09;5056216;28;45555;-62
2022/04/03 07:48:58;;;;;;;;;6.00;2.00;;;;;22.23;48.88;102099.09;5057407;28;61326;-63
2022/04/03 07:51:23;;;;;;;;;7.00;3.33;;;;;22.23;48.54;102098.19;5056954;28;50847;-63
2022/04/03 07:53:49;;;;;;;;;8.67;3.00;;;;;22.17;48.12;102082.16;5050430;28;45632;-62
2022/04/03 07:56:15;;;;;;;;;11.33;3.67;;;;;22.21;48.26;102095.53;5048944;28;45482;-63
2022/04/03 07:58:40;;;;;;;;;14.33;4.00;;;;;22.21;48.79;102102.69;5057404;28;52900;-62
2022/04/03 08:01:05;;;;;;;;;7.33;3.00;;;;;22.22;48.46;102096.44;5056903;28;45546;-63
2022/04/03 08:03:31;;;;;;;;;6.33;3.33;;;;;22.24;47.87;102110.72;5053744;28;54710;-62
2022/04/03 08:05:56;;;;;;;;;11.33;3.00;;;;;22.25;48.25;102107.13;5053959;28;45384;-63
2022/04/03 08:08:21;;;;;;;;;11.33;5.33;;;;;22.27;47.60;102113.38;5055648;28;46471;-61
2022/04/03 08:10:47;;;;;;;;;7.33;3.33;;;;;22.28;47.84;102117.84;5057835;28;45307;-62
2022/04/03 08:13:14;;;;;;;;;11.00;3.00;;;;;22.31;47.50;102116.88;5058515;28;45327;-62
2022/04/03 08:15:40;;;;;;;;;8.33;3.00;;;;;22.33;48.08;102115.97;5051220;28;46220;-62
2022/04/03 08:18:05;;;;;;;;;9.67;3.67;;;;;22.32;48.17;102115.97;5056603;28;46844;-62
2022/04/03 08:20:30;;;;;;;;;14.33;6.00;;;;;22.36;48.20;102123.97;5040277;28;45442;-62
2022/04/03 08:22:56;;;;;;;;;14.00;4.33;;;;;22.38;47.91;102115.88;5052018;28;51088;-62
2022/04/03 08:25:21;;;;;;;;;13.67;4.00;;;;;22.41;47.93;102121.19;5050858;28;45490;-62
2022/04/03 08:27:50;;;;;;;;;3.33;2.00;;;;;22.41;47.63;102127.47;5049837;28;46172;-62
2022/04/03 08:30:37;;;;;;;;;9.33;4.00;;;;;22.42;47.44;102123.84;5055600;28;45700;-63
2022/04/03 08:33:06;;;;;;;;;3.00;3.00;;;;;22.42;47.34;102125.66;5049993;28;45371;-63
2022/04/03 08:35:32;;;;;;;;;14.67;2.00;;;;;22.42;47.22;102129.25;5051089;28;46028;-62
2022/04/03 08:37:58;;;;;;;;;13.67;3.33;;;;;22.42;47.19;102125.66;5030518;28;46980;-63
2022/04/03 08:40:24;;;;;;;;;12.33;3.00;;;;;22.44;47.53;102130.13;5053635;28;45840;-64
2022/04/03 08:42:50;;;;;;;;;14.33;3.33;;;;;22.43;47.16;102133.72;5044474;28;45505;-63
2022/04/03 08:45:15;;;;;;;;;6.33;1.33;;;;;22.46;47.24;102143.53;5056314;28;45451;-61
2022/04/03 08:47:48;;;;;;;;;9.33;3.33;;;;;22.46;47.12;102135.47;5050715;28;57982;-62
2022/04/03 08:50:14;;;;;;;;;9.33;1.00;;;;;22.46;46.99;102133.66;5056916;28;45453;-63
2022/04/03 08:52:42;;;;;;;;;14.33;3.00;;;;;22.44;46.68;102127.44;5053541;28;45305;-61
2022/04/03 08:55:08;;;;;;;;;6.33;2.67;;;;;22.45;46.62;102131.88;5023202;28;45581;-62
2022/04/03 08:57:34;;;;;;;;;6.33;3.33;;;;;22.46;46.64;102124.69;5056680;28;45724;-61
2022/04/03 08:59:59;;;;;;;;;7.00;1.33;;;;;22.43;46.74;102122.97;5055770;28;45415;-64
2022/04/03 09:02:25;;;;;;;;;8.67;2.00;;;;;22.46;46.64;102140.84;5053721;28;57911;-63
2022/04/03 09:04:50;;;;;;;;;4.67;2.00;;;;;22.45;46.18;102142.66;5057047;28;45641;-62
2022/04/03 09:07:19;;;;;;;;;10.33;5.00;;;;;22.44;45.92;102126.53;5055026;28;61754;-63
2022/04/03 09:09:46;;;;;;;;;2.67;1.00;;;;;22.45;46.27;102137.28;5055259;28;45344;-63
2022/04/03 09:12:14;;;;;;;;;4.33;3.00;;;;;22.45;46.37;102125.63;5044962;28;45505;-62
2022/04/03 09:14:53;;;;;;;;;9.67;2.00;;;;;22.47;46.21;102137.25;5051734;28;45545;-64
2022/04/03 09:17:31;;;;;;;;;3.33;2.00;;;;;22.48;46.14;102136.34;5053953;28;46568;-62
2022/04/03 09:20:00;;;;;;;;;8.00;2.33;;;;;22.47;46.34;102132.75;5055911;28;45503;-62
2022/04/03 09:22:28;;;;;;;;;4.33;1.00;;;;;22.47;45.65;102135.44;5055460;28;45301;-62
2022/04/03 09:24:55;;;;;;;;;5.00;2.33;;;;;22.48;45.77;102139.94;5055804;28;45517;-62
2022/04/03 09:27:21;;;;;;;;;5.00;1.00;;;;;22.50;45.54;102137.19;5053033;28;47780;-62
2022/04/03 09:29:46;;;;;;;;;9.67;2.00;;;;;22.50;45.80;102131.81;5049730;28;45416;-62
2022/04/03 09:32:15;;;;;;;;;8.33;2.00;;;;;22.49;45.60;102133.63;5056133;28;53625;-63
2022/04/03 09:34:40;;;;;;;;;3.33;1.33;;;;;22.51;45.75;102127.31;5056962;28;45339;-63
2022/04/03 09:37:05;;;;;;;;;7.00;1.00;;;;;22.52;46.04;102134.47;5053425;28;47270;-62
2022/04/03 09:39:31;;;;;;;;;6.67;2.00;;;;;22.49;46.06;102133.63;5043127;28;45744;-63
2022/04/03 09:42:08;;;;;;;;;7.67;2.00;;;;;22.53;46.14;102137.16;5055360;28;57071;-62
2022/04/03 09:44:40;;;;;;;;;8.00;3.00;;;;;22.53;45.82;102138.94;5055640;28;45450;-62
2022/04/03 09:47:30;;;;;;;;;2.00;2.00;;;;;22.55;45.39;102134.44;5032976;28;45902;-62
2022/04/03 09:49:59;;;;;;;;;6.00;2.00;;;;;22.52;45.75;102124.59;5055249;28;45518;-63
2022/04/03 09:53:22;;;;;;;;;10.00;2.67;;;;;22.54;45.99;102129.97;5032982;28;45459;-62
2022/04/03 09:55:47;;;;;;;;;3.33;2.00;;;;;22.54;45.71;102133.53;5045120;28;45633;-62
2022/04/03 09:58:13;;;;;;;;;10.00;3.00;;;;;22.52;45.79;102126.38;5055986;28;46553;-64
2022/04/03 10:00:40;;;;;;;;;11.00;2.00;;;;;22.55;45.73;102134.44;5054942;28;58923;-62
2022/04/03 10:03:06;;;;;;;;;3.33;2.00;;;;;22.56;45.74;102128.13;5056238;28;45466;-63
2022/04/03 10:05:36;;;;;;;;;8.00;2.00;;;;;22.56;45.45;102131.69;5037740;28;45537;-63
2022/04/03 10:08:02;;;;;;;;;2.33;2.00;;;;;22.54;45.17;102121.88;5043300;28;45548;-62
2022/04/03 10:10:28;;;;;;;;;6.00;2.00;;;;;22.55;45.52;102123.66;5052316;28;45477;-63
2022/04/03 10:12:56;;;;;;;;;4.67;1.00;;;;;22.54;45.38;102117.38;5052522;28;45665;-62
2022/04/03 10:15:23;;;;;;;;;7.33;1.00;;;;;22.56;45.39;102128.13;5053470;28;45458;-65
2022/04/03 10:17:48;;;;;;;;;9.33;1.00;;;;;22.54;45.50;102120.09;5053741;28;46595;-63
2022/04/03 10:23:55;;;;;;;;;7.67;3.00;;;;;22.55;45.09;102113.78;5050415;28;45351;-63
2022/04/03 10:26:20;;;;;;;;;3.00;2.33;;;;;22.56;45.07;102126.31;5054467;28;45602;-63
2022/04/03 10:29:06;;;;;;;;;7.67;1.00;;;;;22.55;45.37;102124.53;5037375;28;60097;-65
2022/04/03 10:31:31;;;;;;;;;5.33;2.00;;;;;22.56;45.22;102118.22;5034479;28;45402;-63
2022/04/03 10:33:57;;;;;;;;;5.33;1.00;;;;;22.56;45.66;102114.66;5049450;28;56320;-63
2022/04/03 10:36:27;;;;;;;;;6.33;1.67;;;;;22.54;45.53;102106.63;5020504;28;54437;-63
2022/04/03 10:39:10;;;;;;;;;4.33;1.00;;;;;22.56;45.63;102106.59;5053767;28;45893;-63
2022/04/03 10:41:39;;;;;;;;;4.00;1.00;;;;;22.55;45.33;102113.78;5050090;28;45293;-62
2022/04/03 10:44:22;;;;;;;;;2.67;1.00;;;;;22.56;45.28;102120.03;5055022;28;45471;-63
2022/04/03 10:47:16;;;;;;;;;4.67;1.33;;;;;22.56;45.38;102107.47;5055388;28;45430;-63
2022/04/03 10:49:59;;;;;;;;;3.00;1.33;;;;;22.53;44.97;102099.47;5042619;28;45898;-63
2022/04/03 10:52:46;;;;;;;;;7.33;1.00;;;;;22.55;45.30;102105.69;5055093;28;45282;-63
2022/04/03 10:55:27;;;;;;;;;2.33;0.67;;;;;22.53;45.47;102103.94;5046718;28;45462;-63
2022/04/03 10:57:54;;;;;;;;;8.33;1.00;;;;;22.56;45.66;102107.47;5055755;28;45589;-62
2022/04/03 11:00:20;;;;;;;;;6.67;1.67;;;;;22.54;44.89;102095.84;5054348;28;46425;-63
2022/04/03 11:02:53;;;;;;;;;5.33;1.00;;;;;22.54;45.46;102090.47;5055525;28;45471;-65
2022/04/03 11:05:21;;;;;;;;;3.33;1.00;;;;;22.56;45.10;102091.31;5055371;28;45351;-62
2022/04/03 11:07:47;;;;;;;;;3.67;0.33;;;;;22.55;45.35;102086.84;5055212;28;45514;-63
2022/04/03 11:10:12;;;;;;;;;2.33;0.67;;;;;22.56;45.54;102087.75;5017436;28;45788;-63
2022/04/03 11:12:45;;;;;;;;;3.67;2.00;;;;;22.55;45.05;102086.84;5034100;28;60344;-63
2022/04/03 11:15:13;;;;;;;;;2.00;1.33;;;;;22.54;45.03;102077.00;5055335;28;45240;-64
2022/04/03 11:17:52;;;;;;;;;6.67;1.67;;;;;22.55;45.32;102072.50;5054355;28;49309;-63
2022/04/03 11:20:32;;;;;;;;;5.33;3.00;;;;;22.55;44.93;102064.44;5036058;28;46493;-64
2022/04/03 11:22:58;;;;;;;;;8.33;2.00;;;;;22.55;45.54;102070.69;5048885;28;45509;-64
2022/04/03 11:25:23;;;;;;;;;6.33;2.00;;;;;22.54;45.24;102058.16;5037482;28;45343;-65